Terminal Aerodrome Forecast
Issued by NWS

Home | Current Version | Previous Version | Text Only | Print | Product List | Glossary On
Versions: 1 2 3 4 5 6 7 8 9 10 11 12 13 14 15 16 17 18 19 20
000
FTUS45 KGJT 201120
TAFDRO
TAF
KDRO 201120Z 2012/2112 06005KT P6SM SCT150
     FM201900 28015G23KT P6SM VCTS SCT070CB BKN110
     FM210200 31008KT P6SM FEW100 BKN150
     FM210900 02003KT P6SM FEW200=

USA.gov is the U.S. government's official web portal to all federal, state and local government web resources and services.